Rices Crossing, Texas
Current Conditions -  °F | °C
As of 8:58 PM on Friday 24 Oct 2014 (Local Time) from KGRK Reporting Station
Clear Clear  
Wind Chill: 22°   Ceiling: Unl
Heat Index: 22°   Visibility: 10mi
Dew Point: 16°   Wind: 6mph
Humidity: 67%   Direction: 160°SSE
Pressure: 30.12"   Gusts: NA
Location:  30.5793°N, 97.5096°W
Report Text: KGRK 250158Z AUTO 16005KT 10SM CLR 22/16 A3012 RMK AO2 SLP193 T02220157
Loading
Personal Weather Stations






























Interactive Weather Map
Tropical Storm Tracking
New forecast layout! Learn more

10-Day Weather Forecast

Advertisements
Track Severe Weather on mobile